Time;durP1;ratioP1;P1;durP2;ratioP2;P2;SDS_P1;SDS_P2;PMS_P1;PMS_P2;Temp;Humidity;BMP_temperature;BMP_pressure;BME280_temperature;BME280_humidity;BME280_pressure;Samples;Min_cycle;Max_cycle;Signal;HPM_P1;HPM_P2
2021/09/13 00:00:53;;;;;;;;;7.00;5.50;;;;;17.65;58.40;100971.78;5097381;27;45313;-60
2021/09/13 00:03:18;;;;;;;;;7.25;6.00;;;;;17.64;58.56;100965.63;5097121;27;45368;-60
2021/09/13 00:05:44;;;;;;;;;5.25;5.00;;;;;17.67;58.43;100968.94;5096188;27;71597;-61
2021/09/13 00:08:09;;;;;;;;;6.00;4.25;;;;;17.65;58.38;100971.78;5096873;27;45268;-60
2021/09/13 00:10:34;;;;;;;;;8.00;6.00;;;;;17.60;58.54;100972.28;5096198;27;67078;-60
2021/09/13 00:13:00;;;;;;;;;6.00;5.00;;;;;17.58;58.96;100976.94;5096281;27;68835;-60
2021/09/13 00:15:25;;;;;;;;;6.50;5.00;;;;;17.55;58.59;100982.59;5096376;27;65463;-60
2021/09/13 00:17:51;;;;;;;;;6.00;6.00;;;;;17.51;58.55;100981.28;5096998;27;47020;-60
2021/09/13 00:20:16;;;;;;;;;9.00;6.00;;;;;17.49;58.73;100980.59;5096708;27;50000;-60
2021/09/13 00:22:41;;;;;;;;;8.75;6.25;;;;;17.48;58.66;100981.63;5096550;27;46002;-60
2021/09/13 00:25:07;;;;;;;;;6.00;6.00;;;;;17.44;59.07;100977.66;5097007;27;45176;-60
2021/09/13 00:27:32;;;;;;;;;8.00;5.00;;;;;17.43;59.15;100971.50;5097100;27;45336;-61
2021/09/13 00:29:58;;;;;;;;;6.25;6.25;;;;;17.43;59.08;100970.69;5096403;27;47377;-61
2021/09/13 00:32:23;;;;;;;;;5.00;5.00;;;;;17.42;59.08;100967.19;5096148;27;68045;-59
2021/09/13 00:34:48;;;;;;;;;5.00;5.00;;;;;17.43;59.17;100968.03;5096634;27;45231;-59
2021/09/13 00:37:14;;;;;;;;;8.75;6.75;;;;;17.44;59.17;100967.03;5095953;27;45374;-60
2021/09/13 00:39:39;;;;;;;;;6.00;6.00;;;;;17.45;59.56;100958.06;5096296;27;56070;-61
2021/09/13 00:42:05;;;;;;;;;4.50;4.00;;;;;17.47;59.30;100961.38;5096089;27;66341;-60
2021/09/13 00:44:30;;;;;;;;;6.00;6.00;;;;;17.48;59.17;100960.38;5096778;27;45359;-60
2021/09/13 00:46:56;;;;;;;;;4.00;4.00;;;;;17.48;59.47;100957.72;5096192;27;60910;-60
2021/09/13 00:49:22;;;;;;;;;6.00;4.00;;;;;17.48;59.44;100953.22;5098539;27;45398;-60
2021/09/13 00:51:48;;;;;;;;;6.00;4.75;;;;;17.50;59.51;100950.38;5100185;27;45331;-60
2021/09/13 00:54:14;;;;;;;;;5.50;4.25;;;;;17.47;59.20;100948.91;5099996;27;46541;-61
2021/09/13 00:56:39;;;;;;;;;4.00;4.00;;;;;17.47;59.17;100950.75;5099553;27;57789;-60
2021/09/13 00:59:04;;;;;;;;;4.75;3.50;;;;;17.43;59.25;100949.44;5064936;27;45461;-60
2021/09/13 01:01:30;;;;;;;;;6.50;5.25;;;;;17.40;59.07;100947.94;5080715;27;74156;-60
2021/09/13 01:03:55;;;;;;;;;4.25;4.00;;;;;17.38;59.24;100947.28;5099029;27;71933;-60
2021/09/13 01:06:21;;;;;;;;;4.50;4.50;;;;;17.33;59.10;100949.63;5099976;27;45185;-59
2021/09/13 01:08:46;;;;;;;;;8.25;6.50;;;;;17.29;59.12;100945.66;5099901;27;45453;-59
2021/09/13 01:11:11;;;;;;;;;6.00;6.00;;;;;17.26;59.44;100948.63;5099926;27;45383;-60
2021/09/13 01:13:37;;;;;;;;;5.75;4.00;;;;;17.22;59.55;100950.81;5099366;27;52315;-60
2021/09/13 01:16:04;;;;;;;;;6.00;5.75;;;;;17.20;59.65;100952.81;5099849;27;45158;-60
2021/09/13 01:18:29;;;;;;;;;5.50;5.00;;;;;17.17;59.78;100951.34;5099764;27;45199;-60
2021/09/13 01:20:54;;;;;;;;;5.75;5.00;;;;;17.18;59.55;100955.66;5098831;27;67130;-59
2021/09/13 01:23:28;;;;;;;;;6.00;6.00;;;;;17.19;59.80;100951.16;5098497;27;72717;-61
2021/09/13 01:25:54;;;;;;;;;6.25;4.50;;;;;17.17;59.54;100947.84;5082000;27;45302;-61
2021/09/13 01:28:19;;;;;;;;;4.75;4.75;;;;;17.15;59.73;100944.53;5099733;27;45509;-60
2021/09/13 01:30:45;;;;;;;;;5.75;5.00;;;;;17.14;59.49;100943.72;5098655;27;67826;-59
2021/09/13 01:33:10;;;;;;;;;5.00;5.00;;;;;17.14;59.46;100943.72;5099601;27;45354;-60
2021/09/13 01:35:35;;;;;;;;;5.00;3.75;;;;;17.11;59.69;100944.03;5098699;27;62714;-60
2021/09/13 01:38:01;;;;;;;;;5.00;5.00;;;;;17.10;59.89;100939.72;5098574;27;65133;-60
2021/09/13 01:40:26;;;;;;;;;7.25;4.75;;;;;17.09;60.07;100939.88;5080656;27;45426;-60
2021/09/13 01:42:51;;;;;;;;;6.75;5.25;;;;;17.09;59.83;100939.88;5099296;27;48222;-60
2021/09/13 01:45:17;;;;;;;;;8.25;7.00;;;;;17.10;59.85;100941.53;5098974;27;53782;-60
2021/09/13 01:47:42;;;;;;;;;5.25;5.25;;;;;17.09;59.89;100935.41;5098620;27;62835;-60
2021/09/13 01:50:08;;;;;;;;;6.25;6.00;;;;;17.08;59.78;100933.75;5099060;27;46121;-60
2021/09/13 01:52:34;;;;;;;;;5.25;5.25;;;;;17.05;59.78;100932.25;5099227;27;45311;-61
2021/09/13 01:54:59;;;;;;;;;6.00;6.00;;;;;17.04;59.41;100927.94;5098337;27;65299;-60
2021/09/13 01:57:25;;;;;;;;;6.75;6.00;;;;;17.04;59.40;100929.78;5098840;27;50770;-60
2021/09/13 01:59:50;;;;;;;;;6.00;5.50;;;;;17.06;59.47;100933.91;5098448;27;45906;-59
2021/09/13 02:02:15;;;;;;;;;8.75;8.00;;;;;17.10;59.60;100933.56;5098205;27;67829;-60
2021/09/13 02:04:41;;;;;;;;;7.25;5.50;;;;;17.13;59.54;100933.25;5098346;27;65382;-60
2021/09/13 02:07:06;;;;;;;;;7.50;6.25;;;;;17.14;59.67;100937.56;5099174;27;45283;-59
2021/09/13 02:09:31;;;;;;;;;7.50;6.00;;;;;17.13;59.83;100934.09;5098862;27;45331;-60
2021/09/13 02:11:57;;;;;;;;;7.25;6.75;;;;;17.14;59.86;100932.25;5098203;27;65629;-61
2021/09/13 02:14:22;;;;;;;;;6.50;5.50;;;;;17.15;59.53;100928.59;5098421;27;57853;-60
2021/09/13 02:16:48;;;;;;;;;7.75;6.00;;;;;17.14;59.64;100930.44;5098281;27;61603;-61
2021/09/13 02:19:13;;;;;;;;;5.75;5.75;;;;;17.15;59.59;100936.56;5098057;27;64076;-60
2021/09/13 02:21:39;;;;;;;;;7.00;5.50;;;;;17.14;59.65;100938.41;5097933;27;60640;-60
2021/09/13 02:24:04;;;;;;;;;5.25;5.00;;;;;17.14;59.49;100935.75;5099142;27;45468;-60
2021/09/13 02:26:30;;;;;;;;;6.25;6.00;;;;;17.13;59.80;100933.25;5098173;27;45532;-60
2021/09/13 02:28:55;;;;;;;;;5.25;5.25;;;;;17.10;59.94;100925.63;5097695;27;72563;-60
2021/09/13 02:31:20;;;;;;;;;5.75;5.00;;;;;17.09;59.84;100930.13;5097821;27;73266;-60
2021/09/13 02:33:46;;;;;;;;;7.50;6.50;;;;;17.07;59.71;100929.44;5097889;27;62469;-60
2021/09/13 02:36:11;;;;;;;;;6.75;6.75;;;;;17.03;59.94;100939.56;5098734;27;45295;-60
2021/09/13 02:38:37;;;;;;;;;5.00;5.00;;;;;16.98;60.03;100938.44;5098374;27;46117;-60
2021/09/13 02:41:02;;;;;;;;;6.25;4.50;;;;;16.94;60.17;100937.91;5097629;27;69337;-61
2021/09/13 02:43:27;;;;;;;;;5.00;5.00;;;;;16.88;60.12;100926.13;5097747;27;66871;-60
2021/09/13 02:45:53;;;;;;;;;6.50;5.00;;;;;16.84;60.42;100916.84;5098369;27;48847;-61
2021/09/13 02:48:18;;;;;;;;;8.00;7.50;;;;;16.84;60.44;100918.69;5098316;27;45893;-60
2021/09/13 02:50:43;;;;;;;;;7.00;5.00;;;;;16.82;60.16;100921.47;5097583;27;63953;-60
2021/09/13 02:53:09;;;;;;;;;6.00;6.00;;;;;16.77;60.44;100922.00;5097807;27;60865;-59
2021/09/13 02:55:35;;;;;;;;;7.00;6.00;;;;;16.72;60.37;100919.00;5097377;27;70404;-60
2021/09/13 02:58:01;;;;;;;;;5.50;5.50;;;;;16.67;60.48;100926.66;5098377;27;45305;-60
2021/09/13 03:00:26;;;;;;;;;5.00;5.00;;;;;16.60;60.68;100923.84;5098166;27;45310;-59
2021/09/13 03:02:51;;;;;;;;;6.50;6.50;;;;;16.55;60.80;100922.66;5097517;27;65232;-60
2021/09/13 03:05:17;;;;;;;;;7.75;5.25;;;;;16.52;60.75;100920.34;5098385;27;45495;-59
2021/09/13 03:07:42;;;;;;;;;7.50;6.25;;;;;16.51;60.98;100924.84;5098121;27;46066;-58
2021/09/13 03:10:08;;;;;;;;;6.00;6.00;;;;;16.44;60.99;100924.66;5098029;27;45151;-60
2021/09/13 03:12:34;;;;;;;;;5.00;5.00;;;;;16.41;61.13;100930.31;5097195;27;45243;-60
2021/09/13 03:15:04;;;;;;;;;6.50;6.00;;;;;16.41;60.90;100925.00;5098101;27;45227;-59
2021/09/13 03:17:29;;;;;;;;;9.50;6.75;;;;;16.39;60.94;100924.34;5097770;27;46318;-60
2021/09/13 03:19:54;;;;;;;;;8.25;6.00;;;;;16.38;61.06;100920.03;5078986;27;63417;-59
2021/09/13 03:22:20;;;;;;;;;5.50;5.00;;;;;16.35;61.17;100912.41;5096906;27;68823;-61
2021/09/13 03:24:45;;;;;;;;;6.75;6.00;;;;;16.32;61.36;100908.25;5097187;27;62408;-60
2021/09/13 03:27:10;;;;;;;;;8.00;5.00;;;;;16.31;61.45;100903.13;5097801;27;46048;-59
2021/09/13 03:29:36;;;;;;;;;6.00;4.75;;;;;16.29;61.22;100905.09;5097054;27;67768;-60
2021/09/13 03:32:01;;;;;;;;;6.00;5.00;;;;;16.27;61.30;100901.78;5097083;27;63229;-60
2021/09/13 03:34:27;;;;;;;;;6.50;6.00;;;;;16.26;61.50;100910.72;5097714;27;45588;-60
2021/09/13 03:36:54;;;;;;;;;6.50;4.75;;;;;16.24;61.51;100915.38;5097675;27;46164;-60
2021/09/13 03:39:19;;;;;;;;;6.25;6.00;;;;;16.20;61.88;100919.34;5097530;27;45199;-59
2021/09/13 03:41:45;;;;;;;;;7.75;6.00;;;;;16.13;62.14;100912.03;5097607;27;45241;-60
2021/09/13 03:44:10;;;;;;;;;10.75;5.25;;;;;16.09;62.24;100902.75;5096926;27;61808;-60
2021/09/13 03:46:35;;;;;;;;;5.75;5.25;;;;;16.05;61.88;100914.66;5097642;27;45849;-60
2021/09/13 03:49:01;;;;;;;;;5.75;5.00;;;;;16.02;62.19;100909.69;5096485;27;68896;-59
2021/09/13 03:51:26;;;;;;;;;6.75;5.00;;;;;15.99;62.22;100905.56;5096903;27;61307;-60
2021/09/13 03:53:52;;;;;;;;;8.75;5.25;;;;;15.99;62.22;100910.00;5097505;27;45535;-60
2021/09/13 03:56:17;;;;;;;;;9.00;5.00;;;;;15.97;62.13;100904.03;5096939;27;55183;-60
2021/09/13 03:58:42;;;;;;;;;6.50;6.00;;;;;15.99;62.40;100905.56;5097258;27;45333;-60
2021/09/13 04:01:08;;;;;;;;;5.75;5.00;;;;;15.98;62.49;100909.19;5096754;27;59697;-60
2021/09/13 04:03:46;;;;;;;;;8.00;8.00;;;;;15.94;62.27;100902.56;5097198;27;46734;-60
2021/09/13 04:06:23;;;;;;;;;9.00;6.00;;;;;15.88;62.78;100900.56;5097221;27;45243;-61
2021/09/13 04:11:26;;;;;;;;;7.00;7.00;;;;;15.81;62.90;100899.50;5097451;27;45242;-60
2021/09/13 04:13:51;;;;;;;;;5.50;5.50;;;;;15.78;63.26;100898.03;5097060;27;45332;-60
2021/09/13 04:16:17;;;;;;;;;5.00;5.00;;;;;15.75;63.14;100901.00;5096872;27;46716;-60
2021/09/13 04:18:42;;;;;;;;;6.50;6.00;;;;;15.75;63.03;100902.81;5096241;27;65711;-60
2021/09/13 04:21:07;;;;;;;;;6.50;6.50;;;;;15.75;63.00;100901.00;5097256;27;45409;-60
2021/09/13 04:23:33;;;;;;;;;8.25;6.25;;;;;15.77;63.14;100895.53;5096566;27;45328;-60
2021/09/13 04:25:58;;;;;;;;;4.75;4.75;;;;;15.79;63.23;100899.69;5096237;27;62701;-61
2021/09/13 04:28:23;;;;;;;;;6.00;5.75;;;;;15.80;62.79;100892.56;5096091;27;70115;-60
2021/09/13 04:30:49;;;;;;;;;7.25;5.00;;;;;15.77;63.27;100884.94;5096414;27;64369;-60
2021/09/13 04:33:14;;;;;;;;;7.00;5.25;;;;;15.79;63.15;100891.75;5096373;27;57093;-60
2021/09/13 04:35:39;;;;;;;;;5.25;5.25;;;;;15.78;62.55;100890.09;5095916;27;69488;-60
2021/09/13 04:38:05;;;;;;;;;9.25;5.00;;;;;15.81;63.00;100897.72;5095777;27;72190;-60
2021/09/13 04:40:30;;;;;;;;;5.00;4.00;;;;;15.80;63.27;100890.75;5096295;27;60196;-60
2021/09/13 04:42:56;;;;;;;;;9.00;8.00;;;;;15.79;63.35;100885.59;5096695;27;45505;-59
2021/09/13 04:45:21;;;;;;;;;6.25;5.00;;;;;15.77;63.04;100880.47;5096820;27;46426;-59
2021/09/13 04:47:46;;;;;;;;;6.25;5.00;;;;;15.73;63.18;100882.59;5095574;27;71721;-60
2021/09/13 04:50:12;;;;;;;;;6.00;6.00;;;;;15.70;63.15;100879.47;5095925;27;62933;-60
2021/09/13 04:52:37;;;;;;;;;8.00;6.75;;;;;15.67;63.35;100882.44;5096080;27;60275;-60
2021/09/13 04:55:03;;;;;;;;;10.50;9.00;;;;;15.64;63.81;100880.09;5095637;27;68637;-59
2021/09/13 04:57:28;;;;;;;;;10.50;7.00;;;;;15.62;63.86;100884.72;5096371;27;50034;-59
2021/09/13 04:59:53;;;;;;;;;11.50;6.75;;;;;15.58;64.48;100885.03;5095813;27;60827;-60
2021/09/13 05:02:19;;;;;;;;;7.00;7.00;;;;;15.57;64.53;100890.53;5095735;27;63863;-59
2021/09/13 05:04:44;;;;;;;;;6.50;6.00;;;;;15.55;64.35;100887.19;5095683;27;65045;-59
2021/09/13 05:07:10;;;;;;;;;8.00;7.25;;;;;15.55;64.51;100888.00;5096313;27;45239;-60
2021/09/13 05:09:35;;;;;;;;;7.25;7.25;;;;;15.55;64.36;100888.00;5096628;27;45230;-60
2021/09/13 05:12:00;;;;;;;;;5.75;5.75;;;;;15.56;64.61;100896.81;5095758;27;59642;-60
2021/09/13 05:14:26;;;;;;;;;5.00;4.50;;;;;15.55;64.41;100897.78;5095540;27;67093;-59
2021/09/13 05:16:51;;;;;;;;;8.50;6.50;;;;;15.54;64.50;100890.84;5095397;27;68248;-59
2021/09/13 05:19:17;;;;;;;;;9.50;9.50;;;;;15.54;64.58;100893.47;5096476;27;45310;-59
2021/09/13 05:21:42;;;;;;;;;9.50;6.00;;;;;15.52;64.63;100896.28;5096157;27;45526;-60
2021/09/13 05:24:08;;;;;;;;;5.75;5.75;;;;;15.50;64.60;100890.31;5095713;27;60108;-59
2021/09/13 05:26:33;;;;;;;;;7.50;6.75;;;;;15.50;64.61;100892.16;5096285;27;45441;-60
2021/09/13 05:28:59;;;;;;;;;7.50;6.50;;;;;15.48;64.74;100891.47;5096086;27;45387;-59
2021/09/13 05:31:24;;;;;;;;;9.50;8.50;;;;;15.47;65.09;100882.69;5096075;27;45433;-60
2021/09/13 05:33:49;;;;;;;;;9.25;9.25;;;;;15.46;64.82;100881.03;5095057;27;67042;-60
2021/09/13 05:36:15;;;;;;;;;9.75;8.50;;;;;15.46;64.94;100881.03;5098648;27;49526;-59
2021/09/13 05:38:40;;;;;;;;;10.00;9.00;;;;;15.46;64.79;100886.31;5099154;27;53252;-60
2021/09/13 05:41:06;;;;;;;;;9.00;8.75;;;;;15.46;64.94;100886.31;5098768;27;63868;-60
2021/09/13 05:43:31;;;;;;;;;8.50;7.00;;;;;15.45;64.99;100881.19;5099327;27;45449;-60
2021/09/13 05:45:56;;;;;;;;;11.00;8.25;;;;;15.42;65.24;100890.28;5098559;27;66649;-60
2021/09/13 05:48:24;;;;;;;;;9.50;7.00;;;;;15.43;65.22;100886.63;5098779;27;62032;-61
2021/09/13 05:50:49;;;;;;;;;9.75;9.75;;;;;15.45;65.20;100887.31;5099139;27;45306;-60
2021/09/13 05:53:14;;;;;;;;;11.75;10.75;;;;;15.43;64.91;100887.47;5098626;27;62546;-60
2021/09/13 05:55:43;;;;;;;;;9.25;7.00;;;;;15.43;65.09;100892.78;5098201;27;69637;-60
2021/09/13 05:58:09;;;;;;;;;12.25;11.00;;;;;15.44;64.90;100883.00;5080138;27;45335;-60
2021/09/13 06:00:35;;;;;;;;;14.75;11.25;;;;;15.45;64.89;100881.19;5099064;27;45315;-60
2021/09/13 06:03:00;;;;;;;;;10.50;8.75;;;;;15.47;65.12;100893.28;5098835;27;47111;-60
2021/09/13 06:05:25;;;;;;;;;10.25;9.25;;;;;15.48;65.08;100883.53;5098990;27;45324;-60
2021/09/13 06:07:51;;;;;;;;;10.25;8.75;;;;;15.49;65.28;100886.00;5098150;27;69092;-60
2021/09/13 06:10:16;;;;;;;;;10.00;9.75;;;;;15.52;65.49;100887.53;5098226;27;57989;-59
2021/09/13 06:12:42;;;;;;;;;11.50;9.25;;;;;15.56;64.95;100886.22;5098758;27;45240;-60
2021/09/13 06:15:08;;;;;;;;;12.25;11.50;;;;;15.57;65.11;100883.38;5098847;27;45219;-60
2021/09/13 06:17:33;;;;;;;;;17.00;13.00;;;;;15.61;65.30;100889.22;5098928;27;45270;-59
2021/09/13 06:19:58;;;;;;;;;14.25;12.00;;;;;15.64;65.40;100882.75;5098179;27;65203;-60
2021/09/13 06:22:24;;;;;;;;;15.75;11.25;;;;;15.67;65.51;100882.44;5098383;27;45903;-60
2021/09/13 06:24:49;;;;;;;;;12.00;12.00;;;;;15.71;65.44;100887.22;5097821;27;68954;-61
2021/09/13 06:27:15;;;;;;;;;12.75;11.75;;;;;15.76;65.42;100891.22;5098640;27;45356;-60
2021/09/13 06:29:41;;;;;;;;;13.50;12.00;;;;;15.81;65.14;100889.75;5098602;27;45567;-59
2021/09/13 06:32:07;;;;;;;;;13.00;12.25;;;;;15.86;65.35;100890.13;5098647;27;45338;-60
2021/09/13 06:34:32;;;;;;;;;18.25;14.50;;;;;15.93;65.45;100881.50;5097057;27;73169;-60
2021/09/13 06:36:57;;;;;;;;;11.75;11.25;;;;;15.98;64.95;100885.34;5097922;27;55005;-60
2021/09/13 06:39:23;;;;;;;;;16.00;14.00;;;;;16.08;65.10;100890.50;5097998;27;58120;-59
2021/09/13 06:41:48;;;;;;;;;16.50;11.25;;;;;16.17;64.50;100897.47;5098509;27;45358;-60
2021/09/13 06:44:16;;;;;;;;;13.25;12.00;;;;;16.26;64.70;100895.63;5097567;27;68355;-60
2021/09/13 06:46:45;;;;;;;;;9.25;8.00;;;;;16.38;64.27;100900.63;5097601;27;45359;-60
2021/09/13 06:49:10;;;;;;;;;11.25;11.25;;;;;16.50;64.43;100895.81;5098472;27;45182;-59
2021/09/13 06:51:35;;;;;;;;;15.25;13.25;;;;;16.62;63.65;100902.44;5098224;27;45926;-60
2021/09/13 06:54:01;;;;;;;;;12.00;11.25;;;;;16.72;63.63;100897.78;5098275;27;45551;-60
2021/09/13 06:56:26;;;;;;;;;12.25;12.25;;;;;16.82;63.09;100899.44;5097436;27;60048;-60
2021/09/13 06:58:52;;;;;;;;;12.00;11.00;;;;;16.91;62.73;100906.41;5098435;27;45608;-60
2021/09/13 07:01:21;;;;;;;;;11.75;10.75;;;;;17.01;62.83;100904.38;5098125;27;46155;-60
2021/09/13 07:03:47;;;;;;;;;13.75;11.00;;;;;17.14;62.11;100911.00;5097474;27;45858;-60
2021/09/13 07:06:12;;;;;;;;;13.25;12.25;;;;;17.25;62.17;100910.66;5063202;27;45504;-60
2021/09/13 07:08:37;;;;;;;;;11.50;9.25;;;;;17.38;62.04;100911.94;5097240;27;59732;-60
2021/09/13 07:11:05;;;;;;;;;11.75;9.00;;;;;17.52;61.56;100905.06;5097024;27;68667;-60
2021/09/13 07:13:30;;;;;;;;;14.50;12.25;;;;;17.67;61.19;100902.50;5097223;27;45232;-61
2021/09/13 07:15:56;;;;;;;;;13.25;10.25;;;;;17.80;60.74;100905.44;5098069;27;45449;-60
2021/09/13 07:18:21;;;;;;;;;13.00;12.00;;;;;17.95;60.50;100903.69;5097333;27;57015;-60
2021/09/13 07:20:47;;;;;;;;;10.75;8.25;;;;;18.08;60.34;100904.94;5097090;27;45394;-60
2021/09/13 07:23:12;;;;;;;;;12.25;9.00;;;;;18.23;60.03;100894.38;5096498;27;69668;-60
2021/09/13 07:25:37;;;;;;;;;13.50;12.00;;;;;18.37;59.71;100900.75;5097224;27;59793;-59
2021/09/13 07:28:03;;;;;;;;;9.50;8.75;;;;;18.46;58.73;100899.69;5097226;27;56970;-60
2021/09/13 07:30:28;;;;;;;;;8.75;8.25;;;;;18.59;58.54;100900.88;5097782;27;45949;-60
2021/09/13 07:32:54;;;;;;;;;10.00;7.50;;;;;18.71;58.37;100896.78;5097565;27;45346;-60
2021/09/13 07:35:19;;;;;;;;;11.75;7.75;;;;;18.86;58.35;100893.31;5097569;27;45360;-60
2021/09/13 07:37:45;;;;;;;;;14.00;10.25;;;;;19.01;58.05;100894.19;5097222;27;52531;-60
2021/09/13 07:40:11;;;;;;;;;17.75;14.25;;;;;19.18;57.64;100894.00;5096751;27;61166;-60
2021/09/13 07:42:37;;;;;;;;;14.75;13.00;;;;;19.32;57.72;100895.84;5097558;27;45244;-60
2021/09/13 07:45:03;;;;;;;;;12.75;11.00;;;;;19.43;57.39;100884.72;5097541;27;45309;-60
2021/09/13 07:47:30;;;;;;;;;13.00;11.00;;;;;19.60;56.49;100887.16;5079412;27;45399;-60
2021/09/13 07:49:56;;;;;;;;;12.25;10.75;;;;;19.73;56.20;100889.97;5096606;27;45473;-60
2021/09/13 07:52:21;;;;;;;;;10.75;9.25;;;;;19.89;55.55;100893.44;5097279;27;45331;-61
2021/09/13 07:54:47;;;;;;;;;8.00;8.00;;;;;19.97;55.00;100890.66;5096309;27;63544;-60
2021/09/13 07:57:12;;;;;;;;;10.75;9.25;;;;;20.08;55.13;100888.50;5096648;27;45305;-60
2021/09/13 07:59:37;;;;;;;;;6.75;6.75;;;;;20.19;54.74;100892.50;5096430;27;64076;-61
2021/09/13 08:02:03;;;;;;;;;11.00;8.00;;;;;20.28;54.36;100886.03;5096260;27;68539;-60
2021/09/13 08:04:28;;;;;;;;;9.75;8.75;;;;;20.37;54.01;100887.53;5096747;27;45656;-59
2021/09/13 08:06:53;;;;;;;;;7.75;7.25;;;;;20.50;53.80;100883.31;5097175;27;45481;-61
2021/09/13 08:09:19;;;;;;;;;7.50;6.00;;;;;20.61;53.79;100891.63;5095759;27;75178;-60
2021/09/13 08:11:44;;;;;;;;;9.00;7.00;;;;;20.71;53.48;100885.94;5095963;27;69165;-60
2021/09/13 08:14:10;;;;;;;;;8.25;5.75;;;;;20.83;53.08;100882.78;5096098;27;57372;-60
2021/09/13 08:16:35;;;;;;;;;5.50;5.50;;;;;20.93;52.78;100874.41;5096836;27;45373;-60
2021/09/13 08:19:01;;;;;;;;;5.75;5.00;;;;;21.03;52.27;100874.88;5096184;27;67883;-61
2021/09/13 08:21:27;;;;;;;;;7.75;6.50;;;;;21.15;52.84;100875.97;5096680;27;45432;-60
2021/09/13 08:23:53;;;;;;;;;7.00;6.00;;;;;21.30;52.62;100891.03;5097268;27;45255;-60
2021/09/13 08:26:18;;;;;;;;;7.25;7.00;;;;;21.46;51.88;100882.66;5078532;27;45315;-61
2021/09/13 08:28:44;;;;;;;;;5.75;5.75;;;;;21.62;51.05;100886.88;5096336;27;59261;-61
2021/09/13 08:31:09;;;;;;;;;7.50;5.50;;;;;21.72;50.71;100875.81;5096911;27;45319;-60
2021/09/13 08:33:35;;;;;;;;;6.50;5.00;;;;;21.85;51.00;100875.00;5096958;27;45227;-60
2021/09/13 08:36:00;;;;;;;;;8.00;8.00;;;;;21.93;51.08;100866.78;5096835;27;45508;-60
2021/09/13 08:38:26;;;;;;;;;8.50;7.75;;;;;22.02;50.37;100875.44;5096565;27;45285;-60
2021/09/13 08:40:52;;;;;;;;;7.00;7.00;;;;;22.13;50.95;100875.88;5077453;27;59891;-60
2021/09/13 08:43:17;;;;;;;;;9.25;8.75;;;;;22.21;50.20;100876.47;5096669;27;45410;-61
2021/09/13 08:48:18;;;;;;;;;9.00;7.50;;;;;22.43;49.98;100881.63;5078507;27;46078;-60
2021/09/13 08:53:14;;;;;;;;;6.25;6.25;;;;;22.62;49.95;100874.63;5096720;27;45302;-61
2021/09/13 08:55:39;;;;;;;;;7.50;7.00;;;;;22.73;49.39;100873.19;5096575;27;45168;-60
2021/09/13 08:58:06;;;;;;;;;8.00;7.25;;;;;22.84;49.22;100877.06;5096497;27;45339;-61
2021/09/13 09:00:31;;;;;;;;;8.00;7.00;;;;;22.91;48.93;100877.06;5061599;27;46009;-61
2021/09/13 09:02:57;;;;;;;;;6.25;6.25;;;;;22.97;49.15;100870.88;5060679;27;60319;-60
2021/09/13 09:05:23;;;;;;;;;11.00;8.50;;;;;23.02;49.24;100864.88;5095781;27;58554;-60
2021/09/13 09:07:52;;;;;;;;;9.00;6.50;;;;;23.12;48.97;100868.72;5095971;27;45447;-60
2021/09/13 09:10:28;;;;;;;;;8.00;7.50;;;;;23.22;48.31;100871.03;5098035;27;45255;-61
2021/09/13 09:13:12;;;;;;;;;8.00;8.00;;;;;23.33;48.16;100880.25;5100116;27;45335;-61
2021/09/13 09:15:58;;;;;;;;;7.50;7.00;;;;;23.44;47.99;100881.44;5099735;27;45448;-60
2021/09/13 09:18:24;;;;;;;;;7.75;7.25;;;;;23.56;47.54;100873.56;5099476;27;45869;-60
2021/09/13 09:20:49;;;;;;;;;7.75;6.75;;;;;23.66;47.33;100873.06;5099716;27;45377;-61
2021/09/13 09:23:15;;;;;;;;;10.00;7.50;;;;;23.79;47.19;100883.75;5099401;27;45504;-60
2021/09/13 09:25:41;;;;;;;;;7.75;6.75;;;;;23.95;46.44;100882.38;5081124;27;49631;-60
2021/09/13 09:28:18;;;;;;;;;8.50;6.50;;;;;24.06;46.25;100882.78;5099620;27;45933;-61
2021/09/13 09:30:48;;;;;;;;;7.75;6.25;;;;;24.20;45.91;100886.97;5098896;27;45399;-61
2021/09/13 09:33:21;;;;;;;;;6.50;6.00;;;;;24.31;45.78;100880.09;5098791;27;45375;-60
2021/09/13 09:35:50;;;;;;;;;5.00;5.00;;;;;24.41;45.74;100879.59;5098918;27;45236;-61
2021/09/13 09:38:40;;;;;;;;;6.75;6.00;;;;;24.51;45.72;100873.72;5099401;27;45373;-61
2021/09/13 09:41:15;;;;;;;;;8.75;7.75;;;;;24.60;45.51;100875.91;5099393;27;46041;-61
2021/09/13 09:43:57;;;;;;;;;3.75;3.75;;;;;24.73;45.03;100871.47;5099514;27;45270;-61
2021/09/13 09:46:23;;;;;;;;;6.50;5.50;;;;;24.90;44.70;100874.41;5099555;27;45288;-61
2021/09/13 09:48:49;;;;;;;;;5.50;4.50;;;;;25.06;44.65;100877.50;5098547;27;45337;-60
2021/09/13 09:51:30;;;;;;;;;8.50;6.00;;;;;25.27;43.74;100865.47;5080360;27;60924;-60
2021/09/13 09:53:56;;;;;;;;;7.50;5.25;;;;;25.42;43.96;100862.41;5099019;27;45320;-61
2021/09/13 09:56:24;;;;;;;;;5.75;5.00;;;;;25.59;43.38;100868.81;5099234;27;45326;-60
2021/09/13 09:59:06;;;;;;;;;6.00;6.00;;;;;25.75;43.09;100867.31;5099220;27;46159;-60
2021/09/13 10:01:37;;;;;;;;;7.00;6.25;;;;;25.86;42.86;100868.44;5099302;27;45888;-61
2021/09/13 10:04:23;;;;;;;;;8.00;5.75;;;;;25.98;42.48;100871.13;5099344;27;45173;-61
2021/09/13 10:06:56;;;;;;;;;7.00;6.00;;;;;26.14;42.09;100868.88;5099067;27;45216;-60
2021/09/13 10:09:21;;;;;;;;;3.75;3.00;;;;;26.26;41.76;100855.41;5098152;27;46136;-61
2021/09/13 10:11:48;;;;;;;;;5.75;5.00;;;;;26.33;41.81;100854.22;5099021;27;45449;-61
2021/09/13 10:14:16;;;;;;;;;6.25;4.75;;;;;26.43;41.41;100845.56;5099065;27;45385;-62
2021/09/13 10:16:42;;;;;;;;;5.75;5.00;;;;;26.58;41.29;100842.41;5099127;27;45387;-61
2021/09/13 10:19:08;;;;;;;;;5.00;5.00;;;;;26.69;40.91;100835.34;5080670;27;45369;-61
2021/09/13 10:21:33;;;;;;;;;5.50;5.50;;;;;26.76;40.67;100821.75;5098258;27;45375;-62
2021/09/13 10:24:00;;;;;;;;;7.75;5.00;;;;;26.79;40.32;100816.69;5099046;27;45401;-61
2021/09/13 10:26:25;;;;;;;;;3.50;3.50;;;;;26.80;40.77;100818.34;5080707;27;45327;-61
2021/09/13 10:29:02;;;;;;;;;5.25;5.00;;;;;26.86;40.59;100823.88;5097892;27;67216;-61
2021/09/13 10:32:01;;;;;;;;;4.00;4.00;;;;;26.92;40.33;100807.53;5098854;27;45742;-61
2021/09/13 10:34:46;;;;;;;;;5.75;4.75;;;;;27.05;40.32;100809.13;5061299;27;45567;-62
2021/09/13 10:37:18;;;;;;;;;4.25;4.00;;;;;27.21;39.42;100804.03;5079743;27;45446;-61
2021/09/13 10:39:53;;;;;;;;;4.75;4.75;;;;;27.36;39.92;100814.28;5079987;27;45476;-61
2021/09/13 10:42:43;;;;;;;;;4.25;4.00;;;;;27.52;39.49;100800.06;5098590;27;46009;-60
2021/09/13 10:45:09;;;;;;;;;6.75;6.75;;;;;27.73;38.78;100813.91;5098752;27;45391;-61
2021/09/13 10:47:35;;;;;;;;;5.00;5.00;;;;;27.92;37.81;100806.38;5098822;27;45501;-61
2021/09/13 10:50:23;;;;;;;;;5.00;5.00;;;;;28.11;38.23;100801.53;5098668;27;46279;-60
2021/09/13 10:52:53;;;;;;;;;4.00;4.00;;;;;28.26;37.61;100806.38;5098378;27;45704;-61
2021/09/13 10:55:23;;;;;;;;;6.25;5.00;;;;;28.39;37.59;100793.56;5098461;27;45310;-61
2021/09/13 10:57:52;;;;;;;;;4.50;4.50;;;;;28.52;36.57;100792.38;5098485;27;45640;-60
2021/09/13 11:00:45;;;;;;;;;4.25;4.25;;;;;28.63;36.06;100798.72;5098344;27;46060;-61
2021/09/13 11:03:23;;;;;;;;;5.75;5.75;;;;;28.66;36.47;100790.13;5097860;27;45239;-61
2021/09/13 11:06:11;;;;;;;;;4.75;3.50;;;;;28.67;36.18;100789.88;5097814;27;45347;-62
2021/09/13 11:08:38;;;;;;;;;6.00;5.00;;;;;28.75;35.68;100785.09;5098420;27;45355;-61
2021/09/13 11:11:14;;;;;;;;;4.00;3.50;;;;;28.85;36.81;100786.06;5097976;27;46194;-61
2021/09/13 11:13:40;;;;;;;;;3.50;3.50;;;;;28.99;35.88;100783.78;5079275;27;48146;-61
2021/09/13 11:16:06;;;;;;;;;4.50;4.50;;;;;29.12;36.42;100782.59;5097838;27;45435;-60
2021/09/13 11:18:35;;;;;;;;;4.75;3.50;;;;;29.29;35.75;100785.19;5079861;27;45312;-62
2021/09/13 11:21:14;;;;;;;;;6.00;5.00;;;;;29.46;35.02;100785.09;5097814;27;45311;-62
2021/09/13 11:23:39;;;;;;;;;3.75;3.75;;;;;29.61;35.24;100780.88;5097606;27;45947;-61
2021/09/13 11:26:05;;;;;;;;;4.75;4.50;;;;;29.76;35.58;100777.47;5097253;27;45354;-61
2021/09/13 11:28:30;;;;;;;;;17.00;14.00;;;;;29.88;35.09;100775.41;5097155;27;63738;-60